createdAt,value
2018-11-20T00:00:01.313Z,1010.71
2018-11-20T00:01:01.286Z,1010.73
2018-11-20T00:02:01.260Z,1010.71
2018-11-20T00:03:01.233Z,1010.65
2018-11-20T00:04:01.215Z,1010.59
2018-11-20T00:05:01.213Z,1010.63
2018-11-20T00:06:01.153Z,1010.61
2018-11-20T00:07:01.128Z,1010.58
2018-11-20T00:08:01.114Z,1010.52
2018-11-20T00:09:01.079Z,1010.60
2018-11-20T00:10:01.045Z,1010.42
2018-11-20T00:11:01.036Z,1010.52
2018-11-20T00:12:00.994Z,1010.53
2018-11-20T00:13:00.968Z,1010.18
2018-11-20T00:14:00.940Z,1010.34
2018-11-20T00:15:00.918Z,1010.29
2018-11-20T00:16:00.894Z,1010.28
2018-11-20T00:17:00.859Z,1010.22
2018-11-20T00:18:00.832Z,1010.26
2018-11-20T00:19:00.816Z,1010.23
2018-11-20T00:20:00.782Z,1010.19
2018-11-20T00:21:00.752Z,1010.23
2018-11-20T00:22:00.724Z,1009.93
2018-11-20T00:23:00.701Z,1010.21
2018-11-20T00:24:00.672Z,1010.17
2018-11-20T00:25:00.642Z,1010.13
2018-11-20T00:26:00.617Z,1010.10
2018-11-20T00:27:00.589Z,1010.16
2018-11-20T00:28:00.567Z,1010.10
2018-11-20T00:29:00.534Z,1010.09
2018-11-20T00:30:00.509Z,1010.05
2018-11-20T00:31:00.501Z,1010.05
2018-11-20T00:32:00.473Z,1010.10
2018-11-20T00:33:00.435Z,1010.04
2018-11-20T00:34:00.398Z,1010.05
2018-11-20T00:35:00.375Z,1010.17
2018-11-20T00:36:00.345Z,1010.03
2018-11-20T00:37:00.319Z,1010.13
2018-11-20T00:38:00.290Z,1010.13
2018-11-20T00:39:00.264Z,1010.17
2018-11-20T00:40:00.238Z,1010.11
2018-11-20T00:41:00.211Z,1010.17
2018-11-20T00:42:00.197Z,1010.17
2018-11-20T00:43:00.157Z,1010.24
2018-11-20T00:44:00.132Z,1010.23
2018-11-20T00:45:00.100Z,1010.10
2018-11-20T00:46:00.080Z,1010.20
2018-11-20T00:47:00.063Z,1010.11
2018-11-20T00:48:00.019Z,1010.08
2018-11-20T00:48:59.992Z,1010.07
2018-11-20T00:49:59.965Z,1009.99
2018-11-20T00:50:59.944Z,1009.98
2018-11-20T00:51:59.919Z,1010.03
2018-11-20T00:52:59.882Z,1009.97
2018-11-20T00:53:59.856Z,1010.00
2018-11-20T00:54:59.835Z,1009.96
2018-11-20T00:55:59.810Z,1010.05
2018-11-20T00:56:59.777Z,1010.00
2018-11-20T00:57:59.763Z,1009.90
2018-11-20T00:58:59.731Z,1009.82
2018-11-20T00:59:59.694Z,1009.89
2018-11-20T01:00:59.672Z,1009.84
2018-11-20T01:01:59.649Z,1009.84
2018-11-20T01:02:59.613Z,1009.77
2018-11-20T01:03:59.587Z,1009.76
2018-11-20T01:04:59.559Z,1009.73
2018-11-20T01:05:59.538Z,1009.76
2018-11-20T01:06:59.507Z,1009.55
2018-11-20T01:07:59.480Z,1009.68
2018-11-20T01:08:59.459Z,1009.70
2018-11-20T01:09:59.425Z,1009.69
2018-11-20T01:10:59.396Z,1009.61
2018-11-20T01:11:59.371Z,1009.63
2018-11-20T01:12:59.348Z,1009.66
2018-11-20T01:13:59.316Z,1009.69
2018-11-20T01:14:59.293Z,1009.64
2018-11-20T01:15:59.265Z,1009.57
2018-11-20T01:16:59.243Z,1009.60
2018-11-20T01:17:59.208Z,1009.58
2018-11-20T01:18:59.185Z,1009.51
2018-11-20T01:19:59.158Z,1009.50
2018-11-20T01:20:59.129Z,1009.46
2018-11-20T01:21:59.101Z,1009.53
2018-11-20T01:22:59.073Z,1009.39
2018-11-20T01:23:59.051Z,1009.47
2018-11-20T01:24:59.019Z,1009.59
2018-11-20T01:25:59.002Z,1009.43
2018-11-20T01:26:58.966Z,1009.48
2018-11-20T01:27:58.950Z,1009.49
2018-11-20T01:28:58.911Z,1009.48
2018-11-20T01:29:58.886Z,1009.54
2018-11-20T01:30:58.860Z,1009.48
2018-11-20T01:31:58.833Z,1009.52
2018-11-20T01:32:58.805Z,1009.46
2018-11-20T01:33:58.779Z,1009.49
2018-11-20T01:34:58.761Z,1009.47
2018-11-20T01:35:58.726Z,1009.46
2018-11-20T01:36:58.699Z,1009.43
2018-11-20T01:37:58.673Z,1009.41
2018-11-20T01:38:58.645Z,1009.40
2018-11-20T01:39:58.618Z,1009.43
2018-11-20T01:40:58.599Z,1009.33
2018-11-20T01:41:58.564Z,1009.37
2018-11-20T01:42:58.538Z,1009.38
2018-11-20T01:43:58.513Z,1009.31
2018-11-20T01:44:58.485Z,1009.34
2018-11-20T01:45:58.458Z,1009.36
2018-11-20T01:46:58.438Z,1009.41
2018-11-20T01:47:58.405Z,1009.31
2018-11-20T01:48:58.387Z,1009.33
2018-11-20T01:49:58.360Z,1009.33
2018-11-20T01:50:58.323Z,1009.22
2018-11-20T01:51:58.301Z,1009.41
2018-11-20T01:52:58.269Z,1009.25
2018-11-20T01:53:58.242Z,1009.17
2018-11-20T01:54:58.218Z,1009.16
2018-11-20T01:55:58.189Z,1008.95
2018-11-20T01:56:58.161Z,1009.03
2018-11-20T01:57:58.134Z,1009.03
2018-11-20T01:58:58.112Z,1008.96
2018-11-20T01:59:58.091Z,1008.97
2018-11-20T02:00:58.056Z,1008.92
2018-11-20T02:01:58.079Z,1008.89
2018-11-20T02:02:58.002Z,1008.89
2018-11-20T02:03:57.988Z,1008.88
2018-11-20T02:04:57.957Z,1008.82
2018-11-20T02:05:57.926Z,1008.82
2018-11-20T02:06:57.895Z,1008.87
2018-11-20T02:07:57.867Z,1008.85
2018-11-20T02:08:57.840Z,1008.89
2018-11-20T02:09:57.814Z,1008.82
2018-11-20T02:10:57.795Z,1008.78
2018-11-20T02:11:57.771Z,1008.76
2018-11-20T02:12:57.736Z,1008.72
2018-11-20T02:13:57.706Z,1008.81
2018-11-20T02:14:57.682Z,1008.79
2018-11-20T02:15:57.655Z,1008.81
2018-11-20T02:16:57.630Z,1008.81
2018-11-20T02:17:57.600Z,1008.79
2018-11-20T02:18:57.575Z,1008.82
2018-11-20T02:19:57.546Z,1008.78
2018-11-20T02:20:57.519Z,1008.77
2018-11-20T02:21:57.492Z,1008.69
2018-11-20T02:22:57.470Z,1008.68
2018-11-20T02:23:57.439Z,1008.67
2018-11-20T02:24:57.421Z,1008.65
2018-11-20T02:25:57.436Z,1008.63
2018-11-20T02:26:57.363Z,1008.67
2018-11-20T02:27:57.349Z,1008.60
2018-11-20T02:28:57.307Z,1008.44
2018-11-20T02:29:57.286Z,1008.64
2018-11-20T02:30:57.262Z,1008.60
2018-11-20T02:31:57.229Z,1008.56
2018-11-20T02:32:57.202Z,1008.57
2018-11-20T02:33:57.174Z,1008.53
2018-11-20T02:34:57.148Z,1008.54
2018-11-20T02:35:57.125Z,1008.56
2018-11-20T02:36:57.093Z,1008.50
2018-11-20T02:37:57.065Z,1008.39
2018-11-20T02:38:57.037Z,1008.33
2018-11-20T02:39:57.022Z,1008.38
2018-11-20T02:40:56.984Z,1008.35
2018-11-20T02:41:56.974Z,1008.30
2018-11-20T02:42:56.934Z,1008.43
2018-11-20T02:43:56.906Z,1008.27
2018-11-20T02:44:56.876Z,1008.25
2018-11-20T02:45:56.857Z,1008.30
2018-11-20T02:46:56.822Z,1008.23
2018-11-20T02:47:56.800Z,1008.25
2018-11-20T02:48:56.768Z,1008.28
2018-11-20T02:49:56.796Z,1008.24
2018-11-20T02:50:56.714Z,1008.25
2018-11-20T02:51:56.689Z,1008.24
2018-11-20T02:52:56.669Z,1008.30
2018-11-20T02:53:56.634Z,1008.14
2018-11-20T02:54:56.607Z,1008.30
2018-11-20T02:55:56.580Z,1008.23
2018-11-20T02:56:56.563Z,1008.18
2018-11-20T02:57:56.528Z,1008.20
2018-11-20T02:58:56.499Z,1008.18
2018-11-20T02:59:56.475Z,1008.13
2018-11-20T03:00:56.445Z,1008.13
2018-11-20T03:01:56.419Z,1008.14
2018-11-20T03:02:56.394Z,1008.07
2018-11-20T03:03:56.367Z,1008.03
2018-11-20T03:04:56.337Z,1008.01
2018-11-20T03:05:56.469Z,1007.97
2018-11-20T03:06:56.294Z,1007.87
2018-11-20T03:07:56.257Z,1007.85
2018-11-20T03:08:56.280Z,1007.84
2018-11-20T03:09:56.203Z,1007.86
2018-11-20T03:10:56.190Z,1007.78
2018-11-20T03:11:56.155Z,1007.75
2018-11-20T03:12:56.125Z,1007.83
2018-11-20T03:13:56.096Z,1007.83
2018-11-20T03:14:56.070Z,1007.86
2018-11-20T03:15:56.050Z,1007.84
2018-11-20T03:16:56.016Z,1007.71
2018-11-20T03:17:55.991Z,1007.86
2018-11-20T03:18:55.962Z,1007.92
2018-11-20T03:19:55.988Z,1007.89
2018-11-20T03:20:55.918Z,1007.86
2018-11-20T03:21:55.887Z,1007.93
2018-11-20T03:22:55.856Z,1007.97
2018-11-20T03:23:55.837Z,1007.88
2018-11-20T03:24:55.807Z,1007.98
2018-11-20T03:25:55.778Z,1008.08
2018-11-20T03:26:55.845Z,1008.00
2018-11-20T03:27:55.721Z,1007.94
2018-11-20T03:28:55.691Z,1008.06
2018-11-20T03:29:55.667Z,1008.04
2018-11-20T03:30:55.647Z,1008.04
2018-11-20T03:31:55.612Z,1008.04
2018-11-20T03:32:55.585Z,1008.10
2018-11-20T03:33:55.558Z,1008.10
2018-11-20T03:34:55.532Z,1008.12
2018-11-20T03:35:55.521Z,1008.18
2018-11-20T03:36:55.477Z,1008.16
2018-11-20T03:37:55.451Z,1008.15
2018-11-20T03:38:55.423Z,1008.22
2018-11-20T03:39:55.405Z,1008.12
2018-11-20T03:40:55.375Z,1008.12
2018-11-20T03:41:55.343Z,1008.12
2018-11-20T03:42:55.320Z,1008.20
2018-11-20T03:43:55.339Z,1008.15
2018-11-20T03:44:55.262Z,1008.15
2018-11-20T03:45:55.235Z,1007.95
2018-11-20T03:46:55.208Z,1008.10
2018-11-20T03:47:55.349Z,1008.09
2018-11-20T03:48:55.153Z,1007.99
2018-11-20T03:49:55.127Z,1007.99
2018-11-20T03:50:55.151Z,1008.06
2018-11-20T03:51:55.074Z,1007.93
2018-11-20T03:52:55.047Z,1007.95
2018-11-20T03:53:55.021Z,1007.98
2018-11-20T03:54:54.996Z,1007.89
2018-11-20T03:55:54.968Z,1007.87
2018-11-20T03:56:54.939Z,1007.77
2018-11-20T03:57:54.913Z,1007.83
2018-11-20T03:58:54.889Z,1007.80
2018-11-20T03:59:54.865Z,1007.69
2018-11-20T04:00:54.832Z,1007.78
2018-11-20T04:01:54.806Z,1007.76
2018-11-20T04:02:54.785Z,1007.71
2018-11-20T04:03:54.755Z,1007.66
2018-11-20T04:04:54.738Z,1007.72
2018-11-20T04:05:54.697Z,1007.72
2018-11-20T04:06:54.670Z,1007.73
2018-11-20T04:07:54.649Z,1007.71
2018-11-20T04:08:54.617Z,1007.78
2018-11-20T04:09:54.592Z,1007.73
2018-11-20T04:10:54.570Z,1007.74
2018-11-20T04:11:54.537Z,1007.80
2018-11-20T04:12:54.511Z,1007.80
2018-11-20T04:13:54.530Z,1007.78
2018-11-20T04:14:54.458Z,1007.88
2018-11-20T04:15:54.441Z,1007.92
2018-11-20T04:16:54.412Z,1007.76
2018-11-20T04:17:54.463Z,1007.76
2018-11-20T04:18:54.351Z,1007.71
2018-11-20T04:19:54.328Z,1007.69
2018-11-20T04:20:54.295Z,1007.71
2018-11-20T04:21:54.273Z,1007.72
2018-11-20T04:22:54.242Z,1007.64
2018-11-20T04:23:54.217Z,1007.79
2018-11-20T04:24:54.191Z,1007.55
2018-11-20T04:25:54.165Z,1007.64
2018-11-20T04:26:54.135Z,1007.63
2018-11-20T04:27:54.117Z,1007.54
2018-11-20T04:28:54.087Z,1007.72
2018-11-20T04:29:54.055Z,1007.52
2018-11-20T04:30:54.028Z,1007.49
2018-11-20T04:31:54.004Z,1007.45
2018-11-20T04:32:53.975Z,1007.52
2018-11-20T04:33:53.948Z,1007.41
2018-11-20T04:34:53.921Z,1007.45
2018-11-20T04:35:53.901Z,1007.46
2018-11-20T04:36:53.866Z,1007.40
2018-11-20T04:37:53.840Z,1007.47
2018-11-20T04:38:53.813Z,1007.20
2018-11-20T04:39:53.787Z,1007.37
2018-11-20T04:40:53.760Z,1007.31
2018-11-20T04:41:53.739Z,1007.39
2018-11-20T04:42:53.706Z,1007.41
2018-11-20T04:43:53.688Z,1007.33
2018-11-20T04:44:53.652Z,1007.37
2018-11-20T04:45:53.628Z,1007.26
2018-11-20T04:46:53.600Z,1007.35
2018-11-20T04:47:53.572Z,1007.29
2018-11-20T04:48:53.546Z,1007.22
2018-11-20T04:49:53.580Z,1007.25
2018-11-20T04:50:53.492Z,1007.33
2018-11-20T04:51:53.468Z,1007.48
2018-11-20T04:52:53.437Z,1007.23
2018-11-20T04:53:53.411Z,1007.24
2018-11-20T04:54:53.388Z,1007.25
2018-11-20T04:55:53.358Z,1007.23
2018-11-20T04:56:53.329Z,1007.12
2018-11-20T04:57:53.307Z,1007.14
2018-11-20T04:58:53.287Z,1007.16
2018-11-20T04:59:53.251Z,1007.06
2018-11-20T05:00:53.230Z,1007.11
2018-11-20T05:01:53.202Z,1007.14
2018-11-20T05:02:53.170Z,1007.07
2018-11-20T05:03:53.144Z,1007.09
2018-11-20T05:04:53.116Z,1007.14
2018-11-20T05:05:53.148Z,1007.16
2018-11-20T05:06:53.188Z,1007.22
2018-11-20T05:07:53.037Z,1007.19
2018-11-20T05:08:53.013Z,1007.07
2018-11-20T05:09:52.983Z,1007.10
2018-11-20T05:10:52.956Z,1007.08
2018-11-20T05:11:52.930Z,1007.11
2018-11-20T05:12:52.902Z,1007.11
2018-11-20T05:13:52.875Z,1007.17
2018-11-20T05:14:52.849Z,1007.19
2018-11-20T05:15:52.838Z,1007.28
2018-11-20T05:16:52.795Z,1007.11
2018-11-20T05:17:52.768Z,1007.10
2018-11-20T05:18:52.740Z,1007.10
2018-11-20T05:19:52.716Z,1007.21
2018-11-20T05:20:52.687Z,1007.19
2018-11-20T05:21:52.662Z,1006.97
2018-11-20T05:22:52.634Z,1007.21
2018-11-20T05:23:52.607Z,1007.16
2018-11-20T05:24:52.584Z,1007.27
2018-11-20T05:25:52.554Z,1007.23
2018-11-20T05:26:52.535Z,1007.16
2018-11-20T05:27:52.512Z,1007.30
2018-11-20T05:28:52.473Z,1007.20
2018-11-20T05:29:52.447Z,1007.22
2018-11-20T05:30:52.436Z,1007.19
2018-11-20T05:31:52.393Z,1007.17
2018-11-20T05:32:52.365Z,1007.20
2018-11-20T05:33:52.339Z,1007.15
2018-11-20T05:34:52.313Z,1007.18
2018-11-20T05:35:52.285Z,1007.21
2018-11-20T05:36:52.260Z,1007.17
2018-11-20T05:37:52.238Z,1007.13
2018-11-20T05:38:52.216Z,1007.20
2018-11-20T05:39:52.186Z,1007.17
2018-11-20T05:40:52.150Z,1007.25
2018-11-20T05:41:52.127Z,1007.17
2018-11-20T05:42:52.098Z,1007.16
2018-11-20T05:43:52.087Z,1007.14
2018-11-20T05:44:52.045Z,1007.17
2018-11-20T05:45:52.017Z,1007.19
2018-11-20T05:46:52.057Z,1007.23
2018-11-20T05:47:51.965Z,1007.14
2018-11-20T05:48:51.937Z,1007.13
2018-11-20T05:49:51.913Z,1007.07
2018-11-20T05:50:51.884Z,1007.12
2018-11-20T05:51:51.856Z,1007.11
2018-11-20T05:52:51.834Z,1007.11
2018-11-20T05:53:51.805Z,1007.02
2018-11-20T05:54:51.776Z,1007.02
2018-11-20T05:55:51.750Z,1006.98
2018-11-20T05:56:51.721Z,1006.91
2018-11-20T05:57:51.747Z,1006.95
2018-11-20T05:58:51.676Z,1006.92
2018-11-20T05:59:51.642Z,1006.90
2018-11-20T06:00:51.623Z,1006.87
2018-11-20T06:01:51.591Z,1006.85
2018-11-20T06:02:51.562Z,1006.84
2018-11-20T06:03:51.544Z,1006.91
2018-11-20T06:04:51.507Z,1006.94
2018-11-20T06:05:51.521Z,1006.98
2018-11-20T06:06:51.553Z,1006.90
2018-11-20T06:07:51.429Z,1006.93
2018-11-20T06:08:51.409Z,1006.98
2018-11-20T06:09:51.374Z,1006.95
2018-11-20T06:10:51.347Z,1006.93
2018-11-20T06:11:51.323Z,1006.91
2018-11-20T06:12:51.418Z,1006.86
2018-11-20T06:13:51.269Z,1006.87
2018-11-20T06:14:51.242Z,1006.93
2018-11-20T06:15:51.214Z,1006.78
2018-11-20T06:16:51.189Z,1006.82
2018-11-20T06:17:51.163Z,1006.79
2018-11-20T06:18:51.186Z,1006.87
2018-11-20T06:19:51.110Z,1006.81
2018-11-20T06:20:51.082Z,1006.79
2018-11-20T06:21:51.055Z,1006.83
2018-11-20T06:22:51.036Z,1006.78
2018-11-20T06:23:51.002Z,1006.72
2018-11-20T06:24:50.974Z,1006.70
2018-11-20T06:25:50.948Z,1006.76
2018-11-20T06:26:50.924Z,1006.79
2018-11-20T06:27:50.894Z,1006.71
2018-11-20T06:28:50.993Z,1006.72
2018-11-20T06:29:50.841Z,1006.72
2018-11-20T06:30:50.836Z,1006.66
2018-11-20T06:31:50.788Z,1006.75
2018-11-20T06:32:50.760Z,1006.77
2018-11-20T06:33:50.738Z,1006.71
2018-11-20T06:34:50.778Z,1006.69
2018-11-20T06:35:50.682Z,1006.70
2018-11-20T06:36:50.656Z,1006.68
2018-11-20T06:37:50.626Z,1006.72
2018-11-20T06:38:50.601Z,1006.77
2018-11-20T06:39:50.591Z,1006.68
2018-11-20T06:40:50.548Z,1006.70
2018-11-20T06:41:50.521Z,1006.70
2018-11-20T06:42:50.494Z,1006.76
2018-11-20T06:43:50.477Z,1006.74
2018-11-20T06:44:50.444Z,1006.82
2018-11-20T06:45:50.514Z,1006.74
2018-11-20T06:46:50.387Z,1006.80
2018-11-20T06:47:50.360Z,1006.79
2018-11-20T06:48:50.335Z,1006.65
2018-11-20T06:49:50.306Z,1006.81
2018-11-20T06:50:50.281Z,1006.73
2018-11-20T06:51:50.262Z,1006.76
2018-11-20T06:52:50.299Z,1006.71
2018-11-20T06:53:50.211Z,1006.71
2018-11-20T06:54:50.178Z,1006.69
2018-11-20T06:55:50.151Z,1006.73
2018-11-20T06:56:50.123Z,1006.78
2018-11-20T06:57:50.093Z,1006.75
2018-11-20T06:58:50.069Z,1006.79
2018-11-20T06:59:50.043Z,1006.79
2018-11-20T07:00:50.022Z,1006.83
2018-11-20T07:01:49.991Z,1006.95
2018-11-20T07:02:49.960Z,1006.82
2018-11-20T07:03:49.940Z,1006.84
2018-11-20T07:04:49.917Z,1006.80
2018-11-20T07:05:49.884Z,1006.79
2018-11-20T07:06:49.861Z,1006.76
2018-11-20T07:07:49.918Z,1006.86
2018-11-20T07:08:49.848Z,1006.82
2018-11-20T07:09:49.781Z,1006.86
2018-11-20T07:10:49.746Z,1006.76
2018-11-20T07:11:49.720Z,1006.92
2018-11-20T07:12:49.690Z,1006.90
2018-11-20T07:13:49.773Z,1006.86
2018-11-20T07:14:49.639Z,1006.84
2018-11-20T07:15:49.799Z,1006.95
2018-11-20T07:16:49.593Z,1006.88
2018-11-20T07:17:49.577Z,1006.93
2018-11-20T07:18:49.534Z,1006.98
2018-11-20T07:19:49.508Z,1006.83
2018-11-20T07:20:49.478Z,1006.82
2018-11-20T07:21:49.453Z,1006.86
2018-11-20T07:22:49.426Z,1006.84
2018-11-20T07:23:49.404Z,1006.84
2018-11-20T07:24:49.451Z,1006.79
2018-11-20T07:25:49.346Z,1006.76
2018-11-20T07:26:49.370Z,1006.87
2018-11-20T07:27:49.293Z,1006.82
2018-11-20T07:28:49.263Z,1006.77
2018-11-20T07:29:49.371Z,1006.87
2018-11-20T07:30:49.374Z,1006.87
2018-11-20T07:31:49.230Z,1006.80
2018-11-20T07:32:49.168Z,1006.80
2018-11-20T07:33:49.131Z,1006.79
2018-11-20T07:34:49.132Z,1006.72
2018-11-20T07:35:49.078Z,1006.78
2018-11-20T07:36:49.209Z,1006.66
2018-11-20T07:37:49.024Z,1006.73
2018-11-20T07:38:48.996Z,1006.70
2018-11-20T07:39:48.971Z,1006.63
2018-11-20T07:40:48.949Z,1006.59
2018-11-20T07:41:48.917Z,1006.68
2018-11-20T07:42:48.891Z,1006.70
2018-11-20T07:43:49.058Z,1006.70
2018-11-20T07:44:48.835Z,1006.62
2018-11-20T07:45:48.808Z,1006.62
2018-11-20T07:46:48.787Z,1006.66
2018-11-20T07:47:48.757Z,1006.69
2018-11-20T07:48:48.728Z,1006.66
2018-11-20T07:49:48.707Z,1006.58
2018-11-20T07:50:48.684Z,1006.57
2018-11-20T07:51:48.653Z,1006.58
2018-11-20T07:52:48.622Z,1006.57
2018-11-20T07:53:48.604Z,1006.56
2018-11-20T07:54:48.568Z,1006.60
2018-11-20T07:55:48.620Z,1006.50
2018-11-20T07:56:48.519Z,1006.56
2018-11-20T07:57:48.488Z,1006.53
2018-11-20T07:58:48.462Z,1006.55
2018-11-20T07:59:48.434Z,1006.57
2018-11-20T08:00:48.407Z,1006.61
2018-11-20T08:01:48.379Z,1006.55
2018-11-20T08:02:48.355Z,1006.56
2018-11-20T08:03:48.371Z,1006.51
2018-11-20T08:04:48.302Z,1006.61
2018-11-20T08:05:48.282Z,1006.54
2018-11-20T08:06:48.247Z,1006.52
2018-11-20T08:07:48.220Z,1006.52
2018-11-20T08:08:48.208Z,1006.51
2018-11-20T08:09:48.166Z,1006.48
2018-11-20T08:10:48.220Z,1006.50
2018-11-20T08:11:48.115Z,1006.50
2018-11-20T08:12:48.094Z,1006.46
2018-11-20T08:13:48.066Z,1006.59
2018-11-20T08:14:48.034Z,1006.53
2018-11-20T08:15:48.015Z,1006.60
2018-11-20T08:16:47.983Z,1006.53
2018-11-20T08:17:47.954Z,1006.50
2018-11-20T08:18:47.925Z,1006.47
2018-11-20T08:19:47.901Z,1006.51
2018-11-20T08:20:47.954Z,1006.55
2018-11-20T08:21:47.847Z,1006.56
2018-11-20T08:22:47.820Z,1006.57
2018-11-20T08:23:47.796Z,1006.57
2018-11-20T08:24:47.776Z,1006.56
2018-11-20T08:25:47.831Z,1006.57
2018-11-20T08:26:47.724Z,1006.54
2018-11-20T08:27:47.687Z,1006.58
2018-11-20T08:28:47.671Z,1006.62
2018-11-20T08:29:47.635Z,1006.56
2018-11-20T08:30:47.637Z,1006.53
2018-11-20T08:31:47.585Z,1006.57
2018-11-20T08:32:47.554Z,1006.48
2018-11-20T08:33:47.636Z,1006.53
2018-11-20T08:34:47.528Z,1006.60
2018-11-20T08:35:47.476Z,1006.58
2018-11-20T08:36:47.450Z,1006.58
2018-11-20T08:37:47.433Z,1006.62
2018-11-20T08:38:47.404Z,1006.62
2018-11-20T08:39:47.385Z,1006.56
2018-11-20T08:40:47.341Z,1006.58
2018-11-20T08:41:47.319Z,1006.60
2018-11-20T08:42:47.297Z,1006.58
2018-11-20T08:43:47.269Z,1006.54
2018-11-20T08:44:47.236Z,1006.59
2018-11-20T08:45:47.211Z,1006.60
2018-11-20T08:46:47.184Z,1006.61
2018-11-20T08:47:47.200Z,1006.67
2018-11-20T08:48:47.142Z,1006.69
2018-11-20T08:49:47.106Z,1006.65
2018-11-20T08:50:47.077Z,1006.65
2018-11-20T08:51:47.057Z,1006.77
2018-11-20T08:52:47.079Z,1006.72
2018-11-20T08:53:47.094Z,1006.73
2018-11-20T08:54:46.970Z,1006.70
2018-11-20T08:55:46.946Z,1006.72
2018-11-20T08:56:46.917Z,1006.71
2018-11-20T08:57:46.890Z,1006.66
2018-11-20T08:58:46.866Z,1006.67
2018-11-20T08:59:46.838Z,1006.72
2018-11-20T09:00:46.818Z,1006.68
2018-11-20T09:01:46.782Z,1006.65
2018-11-20T09:02:46.860Z,1006.70
2018-11-20T09:03:46.737Z,1006.70
2018-11-20T09:04:46.702Z,1006.74
2018-11-20T09:05:46.675Z,1006.71
2018-11-20T09:06:46.663Z,1006.65
2018-11-20T09:07:46.624Z,1006.70
2018-11-20T09:08:46.596Z,1006.77
2018-11-20T09:09:46.641Z,1006.77
2018-11-20T09:10:46.555Z,1006.86
2018-11-20T09:11:46.518Z,1006.62
2018-11-20T09:12:46.489Z,1006.74
2018-11-20T09:13:46.463Z,1006.73
2018-11-20T09:14:46.436Z,1006.72
2018-11-20T09:15:46.412Z,1006.72
2018-11-20T09:16:46.382Z,1006.66
2018-11-20T09:17:46.393Z,1006.73
2018-11-20T09:18:46.334Z,1006.80
2018-11-20T09:19:46.318Z,1006.67
2018-11-20T09:20:46.276Z,1006.77
2018-11-20T09:21:46.255Z,1006.88
2018-11-20T09:22:46.222Z,1006.64
2018-11-20T09:23:46.197Z,1006.68
2018-11-20T09:24:46.168Z,1006.66
2018-11-20T09:25:46.228Z,1006.66
2018-11-20T09:26:46.114Z,1006.70
2018-11-20T09:27:46.146Z,1006.55
2018-11-20T09:28:46.060Z,1006.68
2018-11-20T09:29:46.040Z,1006.63
2018-11-20T09:30:46.011Z,1006.69
2018-11-20T09:31:45.987Z,1006.74
2018-11-20T09:32:45.968Z,1006.74
2018-11-20T09:33:45.928Z,1006.70
2018-11-20T09:34:45.983Z,1006.72
2018-11-20T09:35:45.993Z,1006.61
2018-11-20T09:36:45.847Z,1006.76
2018-11-20T09:37:45.839Z,1006.79
2018-11-20T09:38:45.796Z,1006.62
2018-11-20T09:39:45.766Z,1006.64
2018-11-20T09:40:45.741Z,1006.69
2018-11-20T09:41:45.714Z,1006.63
2018-11-20T09:42:45.686Z,1006.62
2018-11-20T09:43:45.670Z,1006.64
2018-11-20T09:44:45.637Z,1006.56
2018-11-20T09:45:45.625Z,1006.70
2018-11-20T09:46:45.604Z,1006.62
2018-11-20T09:47:45.551Z,1006.67
2018-11-20T09:48:45.527Z,1006.67
2018-11-20T09:49:45.506Z,1006.62
2018-11-20T09:50:45.479Z,1006.64
2018-11-20T09:51:45.449Z,1006.61
2018-11-20T09:52:45.501Z,1006.64
2018-11-20T09:53:45.391Z,1006.62
2018-11-20T09:54:45.364Z,1006.57
2018-11-20T09:55:45.338Z,1006.57
2018-11-20T09:56:45.315Z,1006.50
2018-11-20T09:57:45.284Z,1006.51
2018-11-20T09:58:45.258Z,1006.43
2018-11-20T09:59:45.261Z,1006.45
2018-11-20T10:00:45.209Z,1006.41
2018-11-20T10:01:45.181Z,1006.33
2018-11-20T10:02:45.154Z,1006.41
2018-11-20T10:03:45.227Z,1006.38
2018-11-20T10:04:45.100Z,1006.46
2018-11-20T10:05:45.093Z,1006.42
2018-11-20T10:06:45.059Z,1006.44
2018-11-20T10:07:45.021Z,1006.41
2018-11-20T10:08:45.012Z,1006.48
2018-11-20T10:09:44.965Z,1006.41
2018-11-20T10:10:44.942Z,1006.40
2018-11-20T10:11:44.912Z,1006.43
2018-11-20T10:12:44.899Z,1006.47
2018-11-20T10:13:44.872Z,1006.38
2018-11-20T10:14:44.954Z,1006.43
2018-11-20T10:15:44.815Z,1006.48
2018-11-20T10:16:44.780Z,1006.43
2018-11-20T10:17:44.760Z,1006.40
2018-11-20T10:18:44.728Z,1006.43
2018-11-20T10:19:44.698Z,1006.40
2018-11-20T10:20:44.713Z,1006.35
2018-11-20T10:21:44.664Z,1006.32
2018-11-20T10:22:44.626Z,1006.29
2018-11-20T10:23:44.629Z,1006.37
2018-11-20T10:24:44.651Z,1006.27
2018-11-20T10:25:44.662Z,1006.30
2018-11-20T10:26:44.531Z,1006.27
2018-11-20T10:27:44.488Z,1006.33
2018-11-20T10:28:44.464Z,1006.31
2018-11-20T10:29:44.438Z,1006.27
2018-11-20T10:30:44.413Z,1006.30
2018-11-20T10:31:44.381Z,1006.24
2018-11-20T10:32:44.356Z,1006.13
2018-11-20T10:33:44.329Z,1006.11
2018-11-20T10:34:44.367Z,1006.13
2018-11-20T10:35:44.284Z,1006.04
2018-11-20T10:36:44.255Z,1006.01
2018-11-20T10:37:44.221Z,1005.98
2018-11-20T10:38:44.204Z,1005.96
2018-11-20T10:39:44.170Z,1005.99
2018-11-20T10:40:44.143Z,1006.00
2018-11-20T10:41:44.117Z,1006.05
2018-11-20T10:42:44.090Z,1005.99
2018-11-20T10:43:44.065Z,1006.00
2018-11-20T10:44:44.036Z,1005.98
2018-11-20T10:45:44.012Z,1005.98
2018-11-20T10:46:44.117Z,1005.94
2018-11-20T10:47:43.960Z,1006.05
2018-11-20T10:48:43.930Z,1005.91
2018-11-20T10:49:43.903Z,1005.97
2018-11-20T10:50:43.883Z,1005.95
2018-11-20T10:51:43.852Z,1005.88
2018-11-20T10:52:43.914Z,1005.90
2018-11-20T10:53:43.800Z,1005.83
2018-11-20T10:54:43.772Z,1005.83
2018-11-20T10:55:43.745Z,1005.80
2018-11-20T10:56:43.723Z,1005.75
2018-11-20T10:57:43.691Z,1005.79
2018-11-20T10:58:43.668Z,1005.69
2018-11-20T10:59:43.755Z,1005.78
2018-11-20T11:00:43.612Z,1005.67
2018-11-20T11:01:43.587Z,1005.76
2018-11-20T11:02:43.571Z,1005.75
2018-11-20T11:03:43.538Z,1005.70
2018-11-20T11:04:43.525Z,1005.65
2018-11-20T11:05:43.481Z,1005.56
2018-11-20T11:06:43.637Z,1005.63
2018-11-20T11:07:43.567Z,1005.58
2018-11-20T11:08:43.405Z,1005.63
2018-11-20T11:09:43.384Z,1005.66
2018-11-20T11:10:43.359Z,1005.60
2018-11-20T11:11:43.372Z,1005.66
2018-11-20T11:12:43.485Z,1005.69
2018-11-20T11:13:43.274Z,1005.63
2018-11-20T11:14:43.284Z,1005.67
2018-11-20T11:15:43.221Z,1005.68
2018-11-20T11:16:43.197Z,1005.66
2018-11-20T11:17:43.166Z,1005.73
2018-11-20T11:18:43.147Z,1005.59
2018-11-20T11:19:43.114Z,1005.72
2018-11-20T11:20:43.217Z,1005.52
2018-11-20T11:21:43.062Z,1005.59
2018-11-20T11:22:43.041Z,1005.66
2018-11-20T11:23:43.011Z,1005.60
2018-11-20T11:24:42.985Z,1005.59
2018-11-20T11:25:42.959Z,1005.51
2018-11-20T11:26:42.948Z,1005.59
2018-11-20T11:27:42.908Z,1005.59
2018-11-20T11:28:42.880Z,1005.58
2018-11-20T11:29:42.854Z,1005.49
2018-11-20T11:30:42.841Z,1005.42
2018-11-20T11:31:42.824Z,1005.53
2018-11-20T11:32:42.776Z,1005.48
2018-11-20T11:33:42.758Z,1005.42
2018-11-20T11:34:42.732Z,1005.38
2018-11-20T11:35:42.704Z,1005.35
2018-11-20T11:36:42.670Z,1005.34
2018-11-20T11:37:42.687Z,1005.35
2018-11-20T11:38:42.621Z,1005.30
2018-11-20T11:39:42.592Z,1005.30
2018-11-20T11:40:42.579Z,1005.27
2018-11-20T11:41:42.538Z,1005.17
2018-11-20T11:42:42.525Z,1005.26
2018-11-20T11:43:42.498Z,1005.36
2018-11-20T11:44:42.458Z,1005.32
2018-11-20T11:45:42.435Z,1005.32
2018-11-20T11:46:42.410Z,1005.22
2018-11-20T11:47:42.382Z,1005.26
2018-11-20T11:48:42.354Z,1005.18
2018-11-20T11:49:42.342Z,1005.30
2018-11-20T11:50:42.301Z,1005.17
2018-11-20T11:51:42.275Z,1005.16
2018-11-20T11:52:42.265Z,1005.19
2018-11-20T11:53:42.222Z,1005.16
2018-11-20T11:54:42.195Z,1005.18
2018-11-20T11:55:42.186Z,1005.07
2018-11-20T11:56:42.145Z,1005.13
2018-11-20T11:57:42.117Z,1005.04
2018-11-20T11:58:42.092Z,1005.12
2018-11-20T11:59:42.065Z,1005.17
2018-11-20T12:00:42.037Z,1005.14
2018-11-20T12:03:41.961Z,1005.17
2018-11-20T12:04:41.949Z,1005.13
2018-11-20T12:05:41.930Z,1005.18
2018-11-20T12:06:41.881Z,1005.23